sensor_id;sensor_type;location;lat;lon;timestamp;pressure;altitude;pressure_sealevel;temperature;humidity
11643;BME280;5877;50.930;6.918;2023-04-26T00:04:35;100984.19;;;2.54;66.92
11643;BME280;5877;50.930;6.918;2023-04-26T00:09:27;101321.03;;;4.49;66.31
11643;BME280;5877;50.930;6.918;2023-04-26T00:14:19;100783.31;;;1.11;66.33
11643;BME280;5877;50.930;6.918;2023-04-26T00:19:11;101069.22;;;2.76;66.75
11643;BME280;5877;50.930;6.918;2023-04-26T00:24:04;101311.13;;;4.19;67.02
11643;BME280;5877;50.930;6.918;2023-04-26T00:28:59;100655.38;;;-0.11;66.89
11643;BME280;5877;50.930;6.918;2023-04-26T00:33:51;101025.81;;;2.35;67.77
11643;BME280;5877;50.930;6.918;2023-04-26T00:38:55;101203.78;;;3.41;68.04
11643;BME280;5877;50.930;6.918;2023-04-26T00:43:47;100655.41;;;-0.21;68.14
11643;BME280;5877;50.930;6.918;2023-04-26T00:48:41;101162.81;;;3.09;68.05
11643;BME280;5877;50.930;6.918;2023-04-26T00:53:33;101302.06;;;3.79;68.85
11643;BME280;5877;50.930;6.918;2023-04-26T00:58:26;100970.28;;;1.84;68.75
11643;BME280;5877;50.930;6.918;2023-04-26T01:03:18;101191.13;;;3.20;68.74
11643;BME280;5877;50.930;6.918;2023-04-26T01:08:11;100748.28;;;0.53;68.39
11643;BME280;5877;50.930;6.918;2023-04-26T01:13:03;101099.94;;;2.71;68.88
11643;BME280;5877;50.930;6.918;2023-04-26T01:17:56;101014.84;;;2.23;68.75
11643;BME280;5877;50.930;6.918;2023-04-26T01:22:48;101048.38;;;2.60;68.55
11643;BME280;5877;50.930;6.918;2023-04-26T01:27:42;100944.50;;;2.10;68.01
11643;BME280;5877;50.930;6.918;2023-04-26T01:32:43;101085.34;;;2.88;68.06
11643;BME280;5877;50.930;6.918;2023-04-26T01:37:36;100968.31;;;2.13;68.15
11643;BME280;5877;50.930;6.918;2023-04-26T01:42:29;101107.47;;;3.00;68.29
11643;BME280;5877;50.930;6.918;2023-04-26T01:47:24;100571.47;;;-0.43;68.02
11643;BME280;5877;50.930;6.918;2023-04-26T01:52:20;101286.09;;;3.92;69.38
11643;BME280;5877;50.930;6.918;2023-04-26T01:57:23;101282.63;;;3.83;69.53
11643;BME280;5877;50.930;6.918;2023-04-26T02:02:16;101047.16;;;2.19;70.17
11643;BME280;5877;50.930;6.918;2023-04-26T02:07:09;101309.63;;;3.73;69.71
11643;BME280;5877;50.930;6.918;2023-04-26T02:12:11;100978.25;;;1.73;70.78
11643;BME280;5877;50.930;6.918;2023-04-26T02:17:03;101149.25;;;2.61;70.64
11643;BME280;5877;50.930;6.918;2023-04-26T02:21:58;100813.47;;;0.65;70.88
11643;BME280;5877;50.930;6.918;2023-04-26T02:26:51;100958.38;;;1.46;71.47
11643;BME280;5877;50.930;6.918;2023-04-26T02:31:43;100939.25;;;1.29;71.66
11643;BME280;5877;50.930;6.918;2023-04-26T02:36:35;100959.00;;;1.30;71.56
11643;BME280;5877;50.930;6.918;2023-04-26T02:41:27;101014.66;;;1.61;71.65
11643;BME280;5877;50.930;6.918;2023-04-26T02:46:19;100914.63;;;0.97;71.66
11643;BME280;5877;50.930;6.918;2023-04-26T02:51:11;101063.53;;;1.92;72.46
11643;BME280;5877;50.930;6.918;2023-04-26T02:56:05;100923.16;;;1.08;72.49
11643;BME280;5877;50.930;6.918;2023-04-26T03:00:57;101161.19;;;2.54;72.76
11643;BME280;5877;50.930;6.918;2023-04-26T03:05:52;100867.88;;;0.54;72.67
11643;BME280;5877;50.930;6.918;2023-04-26T03:10:44;101251.06;;;2.99;72.84
11643;BME280;5877;50.930;6.918;2023-04-26T03:15:37;101106.78;;;1.82;73.26
11643;BME280;5877;50.930;6.918;2023-04-26T03:20:29;101298.16;;;2.94;73.58
11643;BME280;5877;50.930;6.918;2023-04-26T03:25:21;101143.34;;;1.97;73.77
11643;BME280;5877;50.930;6.918;2023-04-26T03:30:14;100943.97;;;0.59;75.08
11643;BME280;5877;50.930;6.918;2023-04-26T03:35:08;101017.28;;;1.15;75.31
11643;BME280;5877;50.930;6.918;2023-04-26T03:40:01;101108.59;;;1.62;75.12
11643;BME280;5877;50.930;6.918;2023-04-26T03:44:53;101097.09;;;1.47;75.45
11643;BME280;5877;50.930;6.918;2023-04-26T03:49:46;101281.06;;;2.56;76.03
11643;BME280;5877;50.930;6.918;2023-04-26T03:54:38;101192.75;;;2.13;76.45
11643;BME280;5877;50.930;6.918;2023-04-26T03:59:30;101139.50;;;1.63;75.96
11643;BME280;5877;50.930;6.918;2023-04-26T04:04:23;101037.75;;;0.89;76.08
11643;BME280;5877;50.930;6.918;2023-04-26T04:09:17;100914.13;;;0.18;75.84
11643;BME280;5877;50.930;6.918;2023-04-26T04:14:09;100880.75;;;-0.12;75.93
11643;BME280;5877;50.930;6.918;2023-04-26T04:19:02;101086.47;;;1.40;75.94
11643;BME280;5877;50.930;6.918;2023-04-26T04:23:54;101194.19;;;1.88;76.44
11643;BME280;5877;50.930;6.918;2023-04-26T04:28:47;101282.63;;;2.67;76.00
11643;BME280;5877;50.930;6.918;2023-04-26T04:33:40;101104.25;;;1.62;75.64
11643;BME280;5877;50.930;6.918;2023-04-26T04:38:32;101152.03;;;2.05;75.14
11643;BME280;5877;50.930;6.918;2023-04-26T04:43:28;100887.03;;;0.61;74.35
11643;BME280;5877;50.930;6.918;2023-04-26T04:48:20;100886.16;;;0.80;73.70
11643;BME280;5877;50.930;6.918;2023-04-26T04:53:13;101021.00;;;1.77;73.13
11643;BME280;5877;50.930;6.918;2023-04-26T04:58:05;100994.16;;;1.78;72.06
11643;BME280;5877;50.930;6.918;2023-04-26T05:02:57;100770.78;;;0.61;71.25
11643;BME280;5877;50.930;6.918;2023-04-26T05:07:50;101170.28;;;3.30;70.86
11643;BME280;5877;50.930;6.918;2023-04-26T05:12:44;101098.13;;;3.07;69.70
11643;BME280;5877;50.930;6.918;2023-04-26T05:17:37;101142.69;;;3.46;69.33
11643;BME280;5877;50.930;6.918;2023-04-26T05:22:37;101238.28;;;4.37;67.46
11643;BME280;5877;50.930;6.918;2023-04-26T05:27:30;101141.75;;;4.15;66.33
11643;BME280;5877;50.930;6.918;2023-04-26T05:32:39;101181.41;;;5.49;63.52
11643;BME280;5877;50.930;6.918;2023-04-26T05:37:42;101115.53;;;8.00;55.64
11643;BME280;5877;50.930;6.918;2023-04-26T05:42:36;101323.53;;;12.41;45.15
11643;BME280;5877;50.930;6.918;2023-04-26T05:47:28;101329.38;;;13.46;42.34
11643;BME280;5877;50.930;6.918;2023-04-26T05:52:20;101334.19;;;12.73;43.26
11643;BME280;5877;50.930;6.918;2023-04-26T05:57:13;101341.81;;;12.03;45.51
11643;BME280;5877;50.930;6.918;2023-04-26T06:02:05;101334.13;;;14.37;40.81
11643;BME280;5877;50.930;6.918;2023-04-26T06:06:57;101330.50;;;17.09;35.94
11643;BME280;5877;50.930;6.918;2023-04-26T06:11:49;101137.41;;;17.45;33.32
11643;BME280;5877;50.930;6.918;2023-04-26T06:16:41;101151.41;;;18.23;30.93
11643;BME280;5877;50.930;6.918;2023-04-26T06:21:34;101008.75;;;17.69;29.89
11643;BME280;5877;50.930;6.918;2023-04-26T06:26:26;101282.13;;;20.13;29.17
11643;BME280;5877;50.930;6.918;2023-04-26T06:31:18;101147.34;;;21.19;26.04
11643;BME280;5877;50.930;6.918;2023-04-26T06:36:13;101193.81;;;21.48;25.53
11643;BME280;5877;50.930;6.918;2023-04-26T06:41:05;101117.22;;;20.93;25.26
11643;BME280;5877;50.930;6.918;2023-04-26T06:45:58;101217.81;;;20.92;26.07
11643;BME280;5877;50.930;6.918;2023-04-26T06:50:50;101124.78;;;19.40;26.94
11643;BME280;5877;50.930;6.918;2023-04-26T06:55:42;101062.03;;;20.68;25.25
11643;BME280;5877;50.930;6.918;2023-04-26T07:00:35;101231.66;;;22.06;24.60
11643;BME280;5877;50.930;6.918;2023-04-26T07:05:27;101332.16;;;21.92;25.13
11643;BME280;5877;50.930;6.918;2023-04-26T07:10:18;101342.63;;;20.60;26.88
11643;BME280;5877;50.930;6.918;2023-04-26T07:15:11;101273.13;;;19.82;27.59
11643;BME280;5877;50.930;6.918;2023-04-26T07:20:04;101245.06;;;19.64;27.27
11643;BME280;5877;50.930;6.918;2023-04-26T07:24:57;101010.72;;;18.06;26.91
11643;BME280;5877;50.930;6.918;2023-04-26T07:29:52;101014.34;;;17.51;28.59
11643;BME280;5877;50.930;6.918;2023-04-26T07:34:44;101146.28;;;19.34;26.67
11643;BME280;5877;50.930;6.918;2023-04-26T07:39:37;101293.78;;;20.49;25.75
11643;BME280;5877;50.930;6.918;2023-04-26T07:44:28;101348.19;;;19.74;27.05
11643;BME280;5877;50.930;6.918;2023-04-26T07:49:20;101342.59;;;19.17;28.14
11643;BME280;5877;50.930;6.918;2023-04-26T07:54:12;100859.25;;;15.99;28.04
11643;BME280;5877;50.930;6.918;2023-04-26T07:59:04;101274.94;;;17.98;28.67
11643;BME280;5877;50.930;6.918;2023-04-26T08:03:56;101268.34;;;17.50;29.51
11643;BME280;5877;50.930;6.918;2023-04-26T08:08:49;101269.38;;;17.33;29.16
11643;BME280;5877;50.930;6.918;2023-04-26T08:13:41;101063.94;;;16.45;28.90
11643;BME280;5877;50.930;6.918;2023-04-26T08:18:37;101274.63;;;17.78;29.04
11643;BME280;5877;50.930;6.918;2023-04-26T08:23:32;101285.47;;;16.98;30.36
11643;BME280;5877;50.930;6.918;2023-04-26T08:28:26;100905.50;;;13.71;31.58
11643;BME280;5877;50.930;6.918;2023-04-26T08:33:18;101338.72;;;16.21;32.57
11643;BME280;5877;50.930;6.918;2023-04-26T08:38:10;101171.03;;;14.80;33.58
11643;BME280;5877;50.930;6.918;2023-04-26T08:43:02;101221.53;;;15.44;32.15
11643;BME280;5877;50.930;6.918;2023-04-26T08:48:05;101270.44;;;15.53;32.72
11643;BME280;5877;50.930;6.918;2023-04-26T08:52:59;101110.44;;;14.37;32.31
11643;BME280;5877;50.930;6.918;2023-04-26T08:57:51;101339.53;;;15.98;31.84
11643;BME280;5877;50.930;6.918;2023-04-26T09:02:46;101335.88;;;15.46;32.84
11643;BME280;5877;50.930;6.918;2023-04-26T09:12:31;101244.69;;;14.77;32.67
11643;BME280;5877;50.930;6.918;2023-04-26T09:17:30;101290.25;;;14.90;31.82
11643;BME280;5877;50.930;6.918;2023-04-26T09:22:33;101340.72;;;15.49;31.77
11643;BME280;5877;50.930;6.918;2023-04-26T09:27:35;101278.31;;;16.70;28.38
11643;BME280;5877;50.930;6.918;2023-04-26T09:37:33;101332.47;;;15.80;30.01
11643;BME280;5877;50.930;6.918;2023-04-26T09:42:25;100961.00;;;13.46;31.67
11643;BME280;5877;50.930;6.918;2023-04-26T09:47:20;101202.56;;;14.64;31.15
11643;BME280;5877;50.930;6.918;2023-04-26T09:52:12;100772.94;;;11.20;32.33
11643;BME280;5877;50.930;6.918;2023-04-26T09:57:04;101007.47;;;12.61;32.54
11643;BME280;5877;50.930;6.918;2023-04-26T10:01:56;101325.28;;;14.49;32.07
11643;BME280;5877;50.930;6.918;2023-04-26T10:06:48;101209.94;;;14.25;31.63
11643;BME280;5877;50.930;6.918;2023-04-26T10:11:40;101305.56;;;15.00;31.57
11643;BME280;5877;50.930;6.918;2023-04-26T10:16:32;101019.81;;;14.25;30.42
11643;BME280;5877;50.930;6.918;2023-04-26T10:21:32;101017.16;;;14.43;29.21
11643;BME280;5877;50.930;6.918;2023-04-26T10:26:51;101304.00;;;17.26;29.21
11643;BME280;5877;50.930;6.918;2023-04-26T10:37:08;101153.59;;;15.96;29.65
11643;BME280;5877;50.930;6.918;2023-04-26T10:42:20;101300.72;;;15.80;30.98
11643;BME280;5877;50.930;6.918;2023-04-26T10:47:33;101261.63;;;16.46;29.51
11643;BME280;5877;50.930;6.918;2023-04-26T10:52:27;101292.69;;;16.62;29.09
11643;BME280;5877;50.930;6.918;2023-04-26T10:57:19;101239.03;;;15.68;29.75
11643;BME280;5877;50.930;6.918;2023-04-26T11:02:12;101122.06;;;14.66;29.90
11643;BME280;5877;50.930;6.918;2023-04-26T11:07:04;101205.88;;;15.89;29.12
11643;BME280;5877;50.930;6.918;2023-04-26T11:11:56;101097.09;;;15.15;30.01
11643;BME280;5877;50.930;6.918;2023-04-26T11:16:47;101189.25;;;16.17;28.24
11643;BME280;5877;50.930;6.918;2023-04-26T11:21:39;101258.44;;;16.84;27.98
11643;BME280;5877;50.930;6.918;2023-04-26T11:26:32;101004.94;;;15.47;26.19
11643;BME280;5877;50.930;6.918;2023-04-26T11:31:41;101101.25;;;16.72;27.27
11643;BME280;5877;50.930;6.918;2023-04-26T11:36:36;101244.13;;;18.19;25.63
11643;BME280;5877;50.930;6.918;2023-04-26T11:41:28;101010.31;;;16.88;24.58
11643;BME280;5877;50.930;6.918;2023-04-26T11:46:20;101153.97;;;18.39;25.74
11643;BME280;5877;50.930;6.918;2023-04-26T11:51:13;100998.66;;;17.28;25.66
11643;BME280;5877;50.930;6.918;2023-04-26T11:56:19;101193.91;;;17.79;25.08
11643;BME280;5877;50.930;6.918;2023-04-26T12:01:11;101003.94;;;16.22;25.89
11643;BME280;5877;50.930;6.918;2023-04-26T12:06:03;101103.84;;;17.17;25.66
11643;BME280;5877;50.930;6.918;2023-04-26T12:11:02;101258.19;;;17.98;26.61
11643;BME280;5877;50.930;6.918;2023-04-26T12:15:54;100929.78;;;16.94;25.29
11643;BME280;5877;50.930;6.918;2023-04-26T12:20:46;101123.28;;;18.80;23.71
11643;BME280;5877;50.930;6.918;2023-04-26T12:25:39;101213.81;;;18.42;25.21
11643;BME280;5877;50.930;6.918;2023-04-26T12:30:31;101020.56;;;16.34;26.55
11643;BME280;5877;50.930;6.918;2023-04-26T12:35:26;101109.31;;;17.10;26.49
11643;BME280;5877;50.930;6.918;2023-04-26T12:40:19;100771.19;;;14.16;27.49
11643;BME280;5877;50.930;6.918;2023-04-26T12:45:11;101080.53;;;15.32;28.36
11643;BME280;5877;50.930;6.918;2023-04-26T12:50:03;101158.25;;;15.77;28.14
11643;BME280;5877;50.930;6.918;2023-04-26T12:54:55;101155.41;;;16.19;27.73
11643;BME280;5877;50.930;6.918;2023-04-26T12:59:47;101235.47;;;16.49;27.27
11643;BME280;5877;50.930;6.918;2023-04-26T13:04:39;100998.75;;;15.30;27.99
11643;BME280;5877;50.930;6.918;2023-04-26T13:09:32;101231.94;;;17.01;26.72
11643;BME280;5877;50.930;6.918;2023-04-26T13:14:24;100845.34;;;14.61;26.26
11643;BME280;5877;50.930;6.918;2023-04-26T13:19:16;101221.56;;;16.42;27.71
11643;BME280;5877;50.930;6.918;2023-04-26T13:24:07;101053.16;;;14.91;28.46
11643;BME280;5877;50.930;6.918;2023-04-26T13:28:59;101161.25;;;15.69;28.88
11643;BME280;5877;50.930;6.918;2023-04-26T13:33:51;101244.19;;;16.21;27.58
11643;BME280;5877;50.930;6.918;2023-04-26T13:38:43;101137.97;;;15.83;27.63
11643;BME280;5877;50.930;6.918;2023-04-26T13:43:36;100956.47;;;14.37;28.02
11643;BME280;5877;50.930;6.918;2023-04-26T13:48:27;101187.47;;;15.36;28.57
11643;BME280;5877;50.930;6.918;2023-04-26T13:53:19;100884.56;;;13.10;27.98
11643;BME280;5877;50.930;6.918;2023-04-26T13:58:11;100807.44;;;12.54;28.46
11643;BME280;5877;50.930;6.918;2023-04-26T14:03:03;100972.63;;;14.17;28.91
11643;BME280;5877;50.930;6.918;2023-04-26T14:07:55;101213.03;;;15.65;27.89
11643;BME280;5877;50.930;6.918;2023-04-26T14:12:47;100814.88;;;13.24;27.74
11643;BME280;5877;50.930;6.918;2023-04-26T14:17:39;100879.31;;;13.28;27.96
11643;BME280;5877;50.930;6.918;2023-04-26T14:22:31;101021.88;;;14.65;28.24
11643;BME280;5877;50.930;6.918;2023-04-26T14:27:23;101094.81;;;14.54;29.08
11643;BME280;5877;50.930;6.918;2023-04-26T14:32:15;100955.75;;;13.76;28.86
11643;BME280;5877;50.930;6.918;2023-04-26T14:37:07;101177.81;;;15.65;28.25
11643;BME280;5877;50.930;6.918;2023-04-26T14:41:59;101044.31;;;14.74;28.38
11643;BME280;5877;50.930;6.918;2023-04-26T14:46:51;101048.50;;;13.91;29.14
11643;BME280;5877;50.930;6.918;2023-04-26T14:51:43;100963.25;;;13.06;29.14
11643;BME280;5877;50.930;6.918;2023-04-26T14:56:35;100794.25;;;12.18;30.01
11643;BME280;5877;50.930;6.918;2023-04-26T15:01:27;100975.16;;;13.82;29.42
11643;BME280;5877;50.930;6.918;2023-04-26T15:06:19;101182.41;;;15.22;28.81
11643;BME280;5877;50.930;6.918;2023-04-26T15:11:11;100912.69;;;13.64;29.75
11643;BME280;5877;50.930;6.918;2023-04-26T15:16:04;101182.66;;;15.56;29.02
11643;BME280;5877;50.930;6.918;2023-04-26T15:20:58;101175.59;;;15.15;29.55
11643;BME280;5877;50.930;6.918;2023-04-26T15:25:50;101016.13;;;13.84;30.39
11643;BME280;5877;50.930;6.918;2023-04-26T15:30:42;101082.66;;;13.86;31.09
11643;BME280;5877;50.930;6.918;2023-04-26T15:35:34;100976.78;;;13.16;31.70
11643;BME280;5877;50.930;6.918;2023-04-26T15:40:25;100760.03;;;11.43;31.39
11643;BME280;5877;50.930;6.918;2023-04-26T15:45:18;101059.00;;;13.25;31.40
11643;BME280;5877;50.930;6.918;2023-04-26T15:50:10;101172.53;;;14.28;31.52
11643;BME280;5877;50.930;6.918;2023-04-26T15:55:03;101173.34;;;14.28;31.36
11643;BME280;5877;50.930;6.918;2023-04-26T15:59:57;100992.16;;;12.76;30.99
11643;BME280;5877;50.930;6.918;2023-04-26T16:04:50;101017.59;;;12.64;31.02
11643;BME280;5877;50.930;6.918;2023-04-26T16:09:42;101076.28;;;12.96;31.41
11643;BME280;5877;50.930;6.918;2023-04-26T16:14:35;100866.69;;;11.19;32.31
11643;BME280;5877;50.930;6.918;2023-04-26T16:19:27;100976.81;;;11.85;32.46
11643;BME280;5877;50.930;6.918;2023-04-26T16:24:19;101003.31;;;12.22;32.74
11643;BME280;5877;50.930;6.918;2023-04-26T16:29:11;101014.84;;;12.21;32.71
11643;BME280;5877;50.930;6.918;2023-04-26T16:34:03;101014.41;;;11.92;33.23
11643;BME280;5877;50.930;6.918;2023-04-26T16:38:55;100859.44;;;11.15;33.39
11643;BME280;5877;50.930;6.918;2023-04-26T16:43:47;100747.63;;;10.43;33.49
11643;BME280;5877;50.930;6.918;2023-04-26T16:48:39;100854.03;;;11.48;32.29
11643;BME280;5877;50.930;6.918;2023-04-26T16:53:32;101113.31;;;13.01;32.30
11643;BME280;5877;50.930;6.918;2023-04-26T16:58:24;100914.66;;;11.53;31.15
11643;BME280;5877;50.930;6.918;2023-04-26T17:03:16;100944.56;;;11.58;31.31
11643;BME280;5877;50.930;6.918;2023-04-26T17:08:08;100953.88;;;10.96;31.84
11643;BME280;5877;50.930;6.918;2023-04-26T17:13:05;101174.59;;;12.14;32.45
11643;BME280;5877;50.930;6.918;2023-04-26T17:17:57;100854.44;;;9.83;33.29
11643;BME280;5877;50.930;6.918;2023-04-26T17:22:49;101070.84;;;10.92;34.28
11643;BME280;5877;50.930;6.918;2023-04-26T17:27:41;100691.53;;;8.39;34.52
11643;BME280;5877;50.930;6.918;2023-04-26T17:32:33;100887.28;;;9.79;33.96
11643;BME280;5877;50.930;6.918;2023-04-26T17:37:24;100978.97;;;10.33;34.37
11643;BME280;5877;50.930;6.918;2023-04-26T17:42:17;101109.63;;;11.10;35.00
11643;BME280;5877;50.930;6.918;2023-04-26T17:47:08;100908.03;;;9.60;34.84
11643;BME280;5877;50.930;6.918;2023-04-26T17:52:00;101039.53;;;10.51;34.96
11643;BME280;5877;50.930;6.918;2023-04-26T17:56:52;100928.22;;;9.73;36.26
11643;BME280;5877;50.930;6.918;2023-04-26T18:01:43;101117.50;;;10.70;36.43
11643;BME280;5877;50.930;6.918;2023-04-26T18:06:36;101199.09;;;10.82;37.53
11643;BME280;5877;50.930;6.918;2023-04-26T18:11:28;100863.38;;;8.45;38.17
11643;BME280;5877;50.930;6.918;2023-04-26T18:16:20;100796.59;;;7.93;37.97
11643;BME280;5877;50.930;6.918;2023-04-26T18:21:12;100968.22;;;8.71;38.91
11643;BME280;5877;50.930;6.918;2023-04-26T18:26:03;101081.44;;;9.36;39.07
11643;BME280;5877;50.930;6.918;2023-04-26T18:30:56;100731.94;;;7.03;39.69
11643;BME280;5877;50.930;6.918;2023-04-26T18:35:48;100804.19;;;7.39;39.81
11643;BME280;5877;50.930;6.918;2023-04-26T18:40:44;101216.06;;;9.91;40.07
11643;BME280;5877;50.930;6.918;2023-04-26T18:45:36;100680.19;;;6.49;40.46
11643;BME280;5877;50.930;6.918;2023-04-26T18:50:28;101199.16;;;9.65;40.42
11643;BME280;5877;50.930;6.918;2023-04-26T18:55:19;101135.34;;;9.24;40.73
11643;BME280;5877;50.930;6.918;2023-04-26T19:00:12;101237.47;;;9.94;40.99
11643;BME280;5877;50.930;6.918;2023-04-26T19:05:04;101155.09;;;9.48;40.73
11643;BME280;5877;50.930;6.918;2023-04-26T19:09:56;100858.41;;;7.37;41.24
11643;BME280;5877;50.930;6.918;2023-04-26T19:14:51;101130.94;;;9.03;41.49
11643;BME280;5877;50.930;6.918;2023-04-26T19:19:42;101279.50;;;9.80;41.53
11643;BME280;5877;50.930;6.918;2023-04-26T19:24:34;101218.34;;;9.44;41.64
11643;BME280;5877;50.930;6.918;2023-04-26T19:29:27;100869.59;;;7.16;41.44
11643;BME280;5877;50.930;6.918;2023-04-26T19:34:18;101226.09;;;9.31;42.09
11643;BME280;5877;50.930;6.918;2023-04-26T19:39:10;101182.69;;;9.01;42.02
11643;BME280;5877;50.930;6.918;2023-04-26T19:44:02;100790.50;;;6.65;41.89
11643;BME280;5877;50.930;6.918;2023-04-26T19:48:53;100939.69;;;7.48;42.11
11643;BME280;5877;50.930;6.918;2023-04-26T19:53:45;101252.78;;;9.41;43.05
11643;BME280;5877;50.930;6.918;2023-04-26T19:58:37;100967.78;;;7.46;42.92
11643;BME280;5877;50.930;6.918;2023-04-26T20:03:30;101045.03;;;8.06;42.44
11643;BME280;5877;50.930;6.918;2023-04-26T20:08:23;101246.03;;;9.11;43.27
11643;BME280;5877;50.930;6.918;2023-04-26T20:13:16;101303.81;;;9.46;43.54
11643;BME280;5877;50.930;6.918;2023-04-26T20:18:07;100808.84;;;6.42;43.68
11643;BME280;5877;50.930;6.918;2023-04-26T20:22:59;100843.19;;;6.60;43.99
11643;BME280;5877;50.930;6.918;2023-04-26T20:27:51;101132.63;;;8.32;43.93
11643;BME280;5877;50.930;6.918;2023-04-26T20:32:43;100861.38;;;6.54;43.88
11643;BME280;5877;50.930;6.918;2023-04-26T20:37:35;101072.97;;;8.06;43.66
11643;BME280;5877;50.930;6.918;2023-04-26T20:42:26;101043.94;;;7.79;43.91
11643;BME280;5877;50.930;6.918;2023-04-26T20:47:18;101031.94;;;7.85;43.74
11643;BME280;5877;50.930;6.918;2023-04-26T20:52:10;101296.00;;;9.52;44.12
11643;BME280;5877;50.930;6.918;2023-04-26T20:57:03;101217.00;;;9.06;43.73
11643;BME280;5877;50.930;6.918;2023-04-26T21:01:55;101084.59;;;8.18;44.09
11643;BME280;5877;50.930;6.918;2023-04-26T21:06:46;101231.88;;;9.05;44.40
11643;BME280;5877;50.930;6.918;2023-04-26T21:11:38;101068.13;;;8.03;43.71
11643;BME280;5877;50.930;6.918;2023-04-26T21:16:30;101294.88;;;9.40;44.21
11643;BME280;5877;50.930;6.918;2023-04-26T21:21:22;100976.09;;;7.35;43.80
11643;BME280;5877;50.930;6.918;2023-04-26T21:26:14;101226.69;;;8.91;44.16
11643;BME280;5877;50.930;6.918;2023-04-26T21:31:06;101225.63;;;8.85;43.59
11643;BME280;5877;50.930;6.918;2023-04-26T21:35:58;101236.63;;;8.95;43.55
11643;BME280;5877;50.930;6.918;2023-04-26T21:40:51;101195.81;;;8.65;43.94
11643;BME280;5877;50.930;6.918;2023-04-26T21:45:43;101089.94;;;8.10;43.64
11643;BME280;5877;50.930;6.918;2023-04-26T21:50:34;100874.41;;;6.54;43.81
11643;BME280;5877;50.930;6.918;2023-04-26T21:55:26;101178.53;;;8.49;43.59
11643;BME280;5877;50.930;6.918;2023-04-26T22:00:18;101156.00;;;8.33;43.30
11643;BME280;5877;50.930;6.918;2023-04-26T22:05:10;101104.19;;;7.93;43.48
11643;BME280;5877;50.930;6.918;2023-04-26T22:10:02;101310.50;;;9.12;43.73
11643;BME280;5877;50.930;6.918;2023-04-26T22:14:54;101009.84;;;7.22;43.45
11643;BME280;5877;50.930;6.918;2023-04-26T22:19:46;100886.84;;;6.29;43.90
11643;BME280;5877;50.930;6.918;2023-04-26T22:24:37;101287.78;;;8.98;43.72
11643;BME280;5877;50.930;6.918;2023-04-26T22:29:29;101192.16;;;8.30;43.85
11643;BME280;5877;50.930;6.918;2023-04-26T22:34:21;101209.13;;;8.34;44.14
11643;BME280;5877;50.930;6.918;2023-04-26T22:39:13;101226.72;;;8.40;44.37
11643;BME280;5877;50.930;6.918;2023-04-26T22:44:05;101330.22;;;9.08;44.24
11643;BME280;5877;50.930;6.918;2023-04-26T22:48:57;101172.84;;;8.16;44.62
11643;BME280;5877;50.930;6.918;2023-04-26T22:53:49;101303.50;;;8.98;45.10
11643;BME280;5877;50.930;6.918;2023-04-26T22:58:41;100924.69;;;6.62;44.81
11643;BME280;5877;50.930;6.918;2023-04-26T23:03:36;101122.38;;;8.01;45.13
11643;BME280;5877;50.930;6.918;2023-04-26T23:08:28;101173.22;;;8.28;44.81
11643;BME280;5877;50.930;6.918;2023-04-26T23:13:19;101194.50;;;8.39;45.10
11643;BME280;5877;50.930;6.918;2023-04-26T23:18:11;101284.41;;;8.83;45.13
11643;BME280;5877;50.930;6.918;2023-04-26T23:23:04;101222.19;;;8.34;45.50
11643;BME280;5877;50.930;6.918;2023-04-26T23:27:55;100875.94;;;6.10;45.70
11643;BME280;5877;50.930;6.918;2023-04-26T23:32:47;100904.72;;;6.17;46.23
11643;BME280;5877;50.930;6.918;2023-04-26T23:37:39;101217.03;;;7.81;46.07
11643;BME280;5877;50.930;6.918;2023-04-26T23:42:31;101343.25;;;8.57;46.70
11643;BME280;5877;50.930;6.918;2023-04-26T23:47:23;101239.75;;;7.96;46.38
11643;BME280;5877;50.930;6.918;2023-04-26T23:52:14;101024.69;;;6.69;46.97
11643;BME280;5877;50.930;6.918;2023-04-26T23:57:06;100732.13;;;4.63;47.26
